createdAt,value
2023-08-14T00:00:39.798Z,2.40
2023-08-14T00:03:31.339Z,2.60
2023-08-14T00:06:03.635Z,2.40
2023-08-14T00:08:35.147Z,2.50
2023-08-14T00:11:06.710Z,2.60
2023-08-14T00:13:53.323Z,2.10
2023-08-14T00:16:26.169Z,2.40
2023-08-14T00:18:57.785Z,2.30
2023-08-14T00:21:29.950Z,2.30
2023-08-14T00:24:01.617Z,2.30
2023-08-14T00:26:33.144Z,2.30
2023-08-14T00:29:05.033Z,2.30
2023-08-14T00:31:36.707Z,3.00
2023-08-14T00:34:08.259Z,2.70
2023-08-14T00:36:39.746Z,3.10
2023-08-14T00:39:11.709Z,2.90
2023-08-14T00:41:43.349Z,2.50
2023-08-14T00:44:15.604Z,2.90
2023-08-14T00:46:47.244Z,2.80
2023-08-14T00:49:19.103Z,2.70
2023-08-14T00:51:50.867Z,2.90
2023-08-14T00:54:22.538Z,2.20
2023-08-14T00:56:54.053Z,2.60
2023-08-14T00:59:25.956Z,2.70
2023-08-14T01:01:58.336Z,2.40
2023-08-14T01:04:30.051Z,2.50
2023-08-14T01:07:04.353Z,2.60
2023-08-14T01:09:36.514Z,2.40
2023-08-14T01:12:16.249Z,2.30
2023-08-14T01:14:53.039Z,2.60
2023-08-14T01:17:31.790Z,3.10
2023-08-14T01:20:06.037Z,2.50
2023-08-14T01:23:05.710Z,2.70
2023-08-14T01:25:39.371Z,2.70
2023-08-14T01:28:13.038Z,4.00
2023-08-14T01:30:45.640Z,3.60
2023-08-14T01:33:17.576Z,3.20
2023-08-14T01:35:54.820Z,3.40
2023-08-14T01:38:36.284Z,3.60
2023-08-14T01:41:13.418Z,2.70
2023-08-14T01:43:50.093Z,2.40
2023-08-14T01:46:22.733Z,2.60
2023-08-14T01:48:55.971Z,2.70
2023-08-14T01:51:28.713Z,2.80
2023-08-14T01:54:01.830Z,2.10
2023-08-14T01:56:33.345Z,2.90
2023-08-14T01:59:05.110Z,2.30
2023-08-14T02:01:36.765Z,2.30
2023-08-14T02:04:10.283Z,2.60
2023-08-14T02:06:41.701Z,2.80
2023-08-14T02:09:13.292Z,3.60
2023-08-14T02:11:44.824Z,2.90
2023-08-14T02:14:16.505Z,2.40
2023-08-14T02:16:48.008Z,2.50
2023-08-14T02:19:19.541Z,2.90
2023-08-14T02:21:51.943Z,2.60
2023-08-14T02:24:23.607Z,2.50
2023-08-14T02:26:55.113Z,2.90
2023-08-14T02:29:26.560Z,2.90
2023-08-14T02:31:58.029Z,2.60
2023-08-14T02:34:44.558Z,2.30
2023-08-14T02:37:17.694Z,2.60
2023-08-14T02:39:49.830Z,2.80
2023-08-14T02:42:22.675Z,2.90
2023-08-14T02:44:55.079Z,2.70
2023-08-14T02:47:26.502Z,2.70
2023-08-14T02:49:58.120Z,2.90
2023-08-14T02:52:29.614Z,2.50
2023-08-14T02:55:01.276Z,3.20
2023-08-14T02:57:32.713Z,2.50
2023-08-14T03:00:06.422Z,2.70
2023-08-14T03:02:38.123Z,2.90
2023-08-14T03:05:10.542Z,2.80
2023-08-14T03:07:42.069Z,2.60
2023-08-14T03:10:13.701Z,2.90
2023-08-14T03:12:45.522Z,2.50
2023-08-14T03:15:17.190Z,2.80
2023-08-14T03:17:48.870Z,2.70
2023-08-14T03:20:20.628Z,2.70
2023-08-14T03:22:52.388Z,2.50
2023-08-14T03:25:24.293Z,2.80
2023-08-14T03:27:55.907Z,2.80
2023-08-14T03:30:27.508Z,2.80
2023-08-14T03:32:59.196Z,2.80
2023-08-14T03:35:30.794Z,3.10
2023-08-14T03:38:02.340Z,2.80
2023-08-14T03:40:35.588Z,2.70
2023-08-14T03:43:07.229Z,3.10
2023-08-14T03:45:38.756Z,2.70
2023-08-14T03:48:10.301Z,3.90
2023-08-14T03:50:41.858Z,4.70
2023-08-14T03:53:13.534Z,3.80
2023-08-14T03:55:46.091Z,4.10
2023-08-14T03:58:19.294Z,3.00
2023-08-14T04:00:50.867Z,2.50
2023-08-14T04:03:23.208Z,2.60
2023-08-14T04:05:58.447Z,2.50
2023-08-14T04:08:30.209Z,2.90
2023-08-14T04:11:01.802Z,2.90
2023-08-14T04:13:33.264Z,3.10
2023-08-14T04:16:05.247Z,2.50
2023-08-14T04:18:38.162Z,3.10
2023-08-14T04:21:09.730Z,2.60
2023-08-14T04:23:41.308Z,2.40
2023-08-14T04:26:12.904Z,3.30
2023-08-14T04:28:44.436Z,2.50
2023-08-14T04:31:15.881Z,2.30
2023-08-14T04:33:47.357Z,2.80
2023-08-14T04:36:18.962Z,2.60
2023-08-14T04:38:50.594Z,3.00
2023-08-14T04:41:22.185Z,3.00
2023-08-14T04:43:53.948Z,3.70
2023-08-14T04:46:44.851Z,3.50
2023-08-14T04:49:25.415Z,2.90
2023-08-14T04:51:57.237Z,2.30
2023-08-14T04:54:29.100Z,2.30
2023-08-14T04:57:00.563Z,2.90
2023-08-14T04:59:32.375Z,2.40
2023-08-14T05:02:05.237Z,2.90
2023-08-14T05:04:36.821Z,3.40
2023-08-14T05:07:08.544Z,2.80
2023-08-14T05:09:40.171Z,2.80
2023-08-14T05:12:12.373Z,2.70
2023-08-14T05:14:43.985Z,3.10
2023-08-14T05:17:15.624Z,2.70
2023-08-14T05:19:47.387Z,3.00
2023-08-14T05:22:21.039Z,3.20
2023-08-14T05:24:52.772Z,3.80
2023-08-14T05:27:25.410Z,2.80
2023-08-14T05:30:05.751Z,3.10
2023-08-14T05:32:37.751Z,2.60
2023-08-14T05:35:10.285Z,2.80
2023-08-14T05:37:42.913Z,2.80
2023-08-14T05:40:15.908Z,2.20
2023-08-14T05:42:47.629Z,2.70
2023-08-14T05:45:19.342Z,2.50
2023-08-14T05:47:51.020Z,2.70
2023-08-14T05:50:23.187Z,3.00
2023-08-14T05:52:55.824Z,2.80
2023-08-14T05:55:27.338Z,2.60
2023-08-14T05:57:58.978Z,2.60
2023-08-14T06:00:31.232Z,2.70
2023-08-14T06:03:03.010Z,3.20
2023-08-14T06:05:35.200Z,2.90
2023-08-14T06:08:08.273Z,2.50
2023-08-14T06:10:40.724Z,2.60
2023-08-14T06:13:12.707Z,2.60
2023-08-14T06:15:44.196Z,2.70
2023-08-14T06:18:15.792Z,2.70
2023-08-14T06:20:47.293Z,3.40
2023-08-14T06:23:20.366Z,2.70
2023-08-14T06:25:52.302Z,2.80
2023-08-14T06:28:24.230Z,2.90
2023-08-14T06:30:55.898Z,2.50
2023-08-14T06:33:27.454Z,2.60
2023-08-14T06:35:59.077Z,2.40
2023-08-14T06:38:31.064Z,2.40
2023-08-14T06:41:02.841Z,2.60
2023-08-14T06:43:35.590Z,3.00
2023-08-14T06:46:07.208Z,2.80
2023-08-14T06:48:38.738Z,2.60
2023-08-14T06:51:10.302Z,3.20
2023-08-14T06:53:42.047Z,2.50
2023-08-14T06:56:13.738Z,2.60
2023-08-14T06:58:45.640Z,2.80
2023-08-14T07:01:17.792Z,2.80
2023-08-14T07:03:50.069Z,2.20
2023-08-14T07:06:22.189Z,2.40
2023-08-14T07:08:53.744Z,2.90
2023-08-14T07:11:25.564Z,3.10
2023-08-14T07:13:57.747Z,3.10
2023-08-14T07:16:29.217Z,2.70
2023-08-14T07:19:01.326Z,2.50
2023-08-14T07:21:32.917Z,3.20
2023-08-14T07:24:05.133Z,2.20
2023-08-14T07:26:36.743Z,2.80
2023-08-14T07:29:08.548Z,2.30
2023-08-14T07:31:40.087Z,2.90
2023-08-14T07:34:11.981Z,2.50
2023-08-14T07:36:43.620Z,2.90
2023-08-14T07:39:15.299Z,2.50
2023-08-14T07:41:46.967Z,2.20
2023-08-14T07:44:18.610Z,3.10
2023-08-14T07:46:50.125Z,2.80
2023-08-14T07:49:21.996Z,2.30
2023-08-14T07:51:53.595Z,2.90
2023-08-14T07:54:25.501Z,2.40
2023-08-14T07:56:57.141Z,2.60
2023-08-14T07:59:28.738Z,3.10
2023-08-14T08:02:00.488Z,2.60
2023-08-14T08:04:39.534Z,2.50
2023-08-14T08:07:11.776Z,2.40
2023-08-14T08:09:43.583Z,3.20
2023-08-14T08:12:16.581Z,2.90
2023-08-14T08:14:48.663Z,2.90
2023-08-14T08:17:20.211Z,2.50
2023-08-14T08:19:52.836Z,2.80
2023-08-14T08:22:24.573Z,2.70
2023-08-14T08:24:56.506Z,2.70
2023-08-14T08:27:28.336Z,3.20
2023-08-14T08:30:00.001Z,3.30
2023-08-14T08:32:31.528Z,2.50
2023-08-14T08:35:03.232Z,2.40
2023-08-14T08:37:35.065Z,3.80
2023-08-14T08:40:09.649Z,3.20
2023-08-14T08:42:42.081Z,2.90
2023-08-14T08:45:19.145Z,3.00
2023-08-14T08:47:53.424Z,3.00
2023-08-14T08:50:26.739Z,3.00
2023-08-14T08:52:58.781Z,2.50
2023-08-14T08:55:30.692Z,2.50
2023-08-14T08:58:04.789Z,2.90
2023-08-14T09:00:36.616Z,2.90
2023-08-14T09:03:08.992Z,2.60
2023-08-14T09:05:41.645Z,2.20
2023-08-14T09:08:13.466Z,2.50
2023-08-14T09:10:45.049Z,2.40
2023-08-14T09:13:17.533Z,2.60
2023-08-14T09:15:56.813Z,2.90
2023-08-14T09:18:28.654Z,2.00
2023-08-14T09:21:00.510Z,2.50
2023-08-14T09:23:35.903Z,2.30
2023-08-14T09:26:07.859Z,2.40
2023-08-14T09:28:40.545Z,2.40
2023-08-14T09:31:14.846Z,2.60
2023-08-14T09:33:47.567Z,2.20
2023-08-14T09:36:19.291Z,2.30
2023-08-14T09:38:53.979Z,2.20
2023-08-14T09:41:28.303Z,2.70
2023-08-14T09:44:03.500Z,2.30
2023-08-14T09:46:35.422Z,2.60
2023-08-14T09:49:09.559Z,2.30
2023-08-14T09:51:43.543Z,2.70
2023-08-14T09:54:15.204Z,2.40
2023-08-14T09:56:48.449Z,2.20
2023-08-14T09:59:20.233Z,2.50
2023-08-14T10:01:51.919Z,2.50
2023-08-14T10:04:24.500Z,2.60
2023-08-14T10:06:57.282Z,2.70
2023-08-14T10:09:33.001Z,2.80
2023-08-14T10:12:08.926Z,2.60
2023-08-14T10:14:43.531Z,3.00
2023-08-14T10:17:23.498Z,2.50
2023-08-14T10:22:26.882Z,2.40
2023-08-14T10:24:58.498Z,2.60
2023-08-14T10:27:31.902Z,2.50
2023-08-14T10:30:04.939Z,2.60
2023-08-14T10:32:38.260Z,2.30
2023-08-14T10:35:12.943Z,2.30
2023-08-14T10:37:56.312Z,2.20
2023-08-14T10:40:36.937Z,2.70
2023-08-14T10:43:09.169Z,2.50
2023-08-14T10:45:41.007Z,2.80
2023-08-14T10:48:14.135Z,2.50
2023-08-14T10:50:49.510Z,2.60
2023-08-14T10:53:21.310Z,3.00
2023-08-14T10:55:54.126Z,2.90
2023-08-14T10:58:48.539Z,2.30
2023-08-14T11:01:20.897Z,3.50
2023-08-14T11:04:06.337Z,3.30
2023-08-14T11:07:09.898Z,3.00
2023-08-14T11:09:42.897Z,2.70
2023-08-14T11:12:14.637Z,3.40
2023-08-14T11:14:46.569Z,3.60
2023-08-14T11:17:18.616Z,3.10
2023-08-14T11:19:51.489Z,2.60
2023-08-14T11:22:24.865Z,2.90
2023-08-14T11:24:56.827Z,2.50
2023-08-14T11:27:28.435Z,2.70
2023-08-14T11:30:02.465Z,2.30
2023-08-14T11:32:35.896Z,2.50
2023-08-14T11:35:09.043Z,2.50
2023-08-14T11:37:40.930Z,2.80
2023-08-14T11:40:14.540Z,2.50
2023-08-14T11:42:46.585Z,2.70
2023-08-14T11:45:18.167Z,2.40
2023-08-14T11:47:51.463Z,2.70
2023-08-14T11:50:23.599Z,3.00
2023-08-14T11:52:56.372Z,2.20
2023-08-14T11:55:28.903Z,2.80
2023-08-14T11:58:04.029Z,3.30
2023-08-14T12:00:35.830Z,2.90
2023-08-14T12:03:09.808Z,2.70
2023-08-14T12:05:42.289Z,2.60
2023-08-14T12:08:15.426Z,2.50
2023-08-14T12:10:48.985Z,2.60
2023-08-14T12:13:24.555Z,2.80
2023-08-14T12:15:56.291Z,3.50
2023-08-14T12:18:27.992Z,2.50
2023-08-14T12:20:59.910Z,2.60
2023-08-14T12:23:31.915Z,2.50
2023-08-14T12:26:08.924Z,2.50
2023-08-14T12:28:40.746Z,2.90
2023-08-14T12:31:13.347Z,2.70
2023-08-14T12:33:46.975Z,3.10
2023-08-14T12:36:20.714Z,2.60
2023-08-14T12:38:52.406Z,2.30
2023-08-14T12:41:24.238Z,3.30
2023-08-14T12:43:55.908Z,2.70
2023-08-14T12:46:27.677Z,2.90
2023-08-14T12:48:59.234Z,2.70
2023-08-14T12:51:31.545Z,2.60
2023-08-14T12:54:03.120Z,3.00
2023-08-14T12:56:38.115Z,2.40
2023-08-14T12:59:10.164Z,2.70
2023-08-14T13:01:47.502Z,2.60
2023-08-14T13:04:19.605Z,3.10
2023-08-14T13:06:51.684Z,2.10
2023-08-14T13:09:23.245Z,2.60
2023-08-14T13:11:55.037Z,2.30
2023-08-14T13:14:26.573Z,3.10
2023-08-14T13:16:58.271Z,2.40
2023-08-14T13:19:29.931Z,2.50
2023-08-14T13:22:01.593Z,2.30
2023-08-14T13:24:33.111Z,2.70
2023-08-14T13:27:09.525Z,3.10
2023-08-14T13:29:42.005Z,2.80
2023-08-14T13:32:13.790Z,2.70
2023-08-14T13:34:45.385Z,3.00
2023-08-14T13:37:17.183Z,3.20
2023-08-14T13:39:48.809Z,2.80
2023-08-14T13:42:20.583Z,3.20
2023-08-14T13:44:56.173Z,3.00
2023-08-14T13:47:33.490Z,3.20
2023-08-14T13:50:12.079Z,2.70
2023-08-14T13:52:46.886Z,2.80
2023-08-14T13:55:19.507Z,2.50
2023-08-14T13:57:51.231Z,2.20
2023-08-14T14:00:28.019Z,2.40
2023-08-14T14:03:01.692Z,2.60
2023-08-14T14:05:33.516Z,2.60
2023-08-14T14:08:05.647Z,3.10
2023-08-14T14:10:37.476Z,2.70
2023-08-14T14:13:09.357Z,2.80
2023-08-14T14:15:41.749Z,3.10
2023-08-14T14:18:13.555Z,3.40
2023-08-14T14:20:46.701Z,2.60
2023-08-14T14:23:18.364Z,3.20
2023-08-14T14:25:49.908Z,3.10
2023-08-14T14:28:21.639Z,2.90
2023-08-14T14:30:53.193Z,3.30
2023-08-14T14:33:24.775Z,3.30
2023-08-14T14:35:56.334Z,3.10
2023-08-14T14:38:28.302Z,3.10
2023-08-14T14:41:02.292Z,2.50
2023-08-14T14:43:34.219Z,3.10
2023-08-14T14:46:08.794Z,3.20
2023-08-14T14:48:41.174Z,2.70
2023-08-14T14:51:12.735Z,2.80
2023-08-14T14:53:44.529Z,2.70
2023-08-14T14:56:16.095Z,2.60
2023-08-14T14:58:48.419Z,2.50
2023-08-14T15:01:20.093Z,4.00
2023-08-14T15:03:52.059Z,3.40
2023-08-14T15:06:23.618Z,3.00
2023-08-14T15:08:55.163Z,2.80
2023-08-14T15:11:26.766Z,2.30
2023-08-14T15:13:58.482Z,3.10
2023-08-14T15:16:33.044Z,3.70
2023-08-14T15:19:05.282Z,3.10
2023-08-14T15:21:36.872Z,2.80
2023-08-14T15:24:09.714Z,3.00
2023-08-14T15:26:41.382Z,3.50
2023-08-14T15:29:13.509Z,2.80
2023-08-14T15:31:45.285Z,2.90
2023-08-14T15:34:16.928Z,3.30
2023-08-14T15:36:48.562Z,2.80
2023-08-14T15:39:20.178Z,3.20
2023-08-14T15:41:51.741Z,3.30
2023-08-14T15:44:23.485Z,3.40
2023-08-14T15:46:55.346Z,3.10
2023-08-14T15:49:26.933Z,2.70
2023-08-14T15:51:58.462Z,3.30
2023-08-14T15:54:43.044Z,2.40
2023-08-14T15:57:21.833Z,3.00
2023-08-14T15:59:53.951Z,2.90
2023-08-14T16:02:25.546Z,2.70
2023-08-14T16:04:58.223Z,2.80
2023-08-14T16:07:30.248Z,2.80
2023-08-14T16:10:01.815Z,3.00
2023-08-14T16:12:33.530Z,2.60
2023-08-14T16:15:07.464Z,3.50
2023-08-14T16:17:43.084Z,3.10
2023-08-14T16:20:15.421Z,2.60
2023-08-14T16:22:46.953Z,2.90
2023-08-14T16:25:18.606Z,2.50
2023-08-14T16:27:50.157Z,3.00
2023-08-14T16:30:21.682Z,2.40
2023-08-14T16:32:53.412Z,3.60
2023-08-14T16:35:24.949Z,3.40
2023-08-14T16:37:56.446Z,2.90
2023-08-14T16:40:28.674Z,3.20
2023-08-14T16:43:01.277Z,3.20
2023-08-14T16:45:33.020Z,3.30
2023-08-14T16:48:05.094Z,3.00
2023-08-14T16:50:40.132Z,3.00
2023-08-14T16:53:12.456Z,3.40
2023-08-14T16:55:45.034Z,3.00
2023-08-14T16:58:16.934Z,3.20
2023-08-14T17:00:49.336Z,3.30
2023-08-14T17:03:22.615Z,2.90
2023-08-14T17:06:02.445Z,3.10
2023-08-14T17:08:36.448Z,2.40
2023-08-14T17:11:09.308Z,3.20
2023-08-14T17:13:40.887Z,3.30
2023-08-14T17:16:13.648Z,3.00
2023-08-14T17:18:45.637Z,3.30
2023-08-14T17:21:17.231Z,3.40
2023-08-14T17:23:48.816Z,3.30
2023-08-14T17:26:20.695Z,3.20
2023-08-14T17:28:52.203Z,3.40
2023-08-14T17:31:23.916Z,3.20
2023-08-14T17:33:55.610Z,2.80
2023-08-14T17:36:27.558Z,2.80
2023-08-14T17:39:01.418Z,3.30
2023-08-14T17:44:06.285Z,3.50
2023-08-14T17:46:37.985Z,2.90
2023-08-14T17:49:09.565Z,3.60
2023-08-14T17:51:41.066Z,2.70
2023-08-14T17:54:12.808Z,2.90
2023-08-14T17:56:44.671Z,2.90
2023-08-14T17:59:16.120Z,2.70
2023-08-14T18:01:47.730Z,2.50
2023-08-14T18:04:19.290Z,2.90
2023-08-14T18:06:50.895Z,3.20
2023-08-14T18:09:22.358Z,3.30
2023-08-14T18:11:54.101Z,2.90
2023-08-14T18:14:25.653Z,3.30
2023-08-14T18:16:57.205Z,3.30
2023-08-14T18:19:29.930Z,3.30
2023-08-14T18:22:01.739Z,3.10
2023-08-14T18:24:33.499Z,3.20
2023-08-14T18:27:05.827Z,3.30
2023-08-14T18:29:37.416Z,3.30
2023-08-14T18:32:09.541Z,4.20
2023-08-14T18:34:43.794Z,3.40
2023-08-14T18:37:15.744Z,3.40
2023-08-14T18:39:47.356Z,3.30
2023-08-14T18:42:19.266Z,3.40
2023-08-14T18:44:52.718Z,4.10
2023-08-14T18:47:34.189Z,3.70
2023-08-14T18:50:11.687Z,3.40
2023-08-14T18:52:47.345Z,3.30
2023-08-14T18:55:20.086Z,3.10
2023-08-14T18:57:53.731Z,3.30
2023-08-14T19:00:26.463Z,3.10
2023-08-14T19:03:00.352Z,3.20
2023-08-14T19:05:33.117Z,3.60
2023-08-14T19:08:06.910Z,3.00
2023-08-14T19:10:38.468Z,3.70
2023-08-14T19:13:10.025Z,3.50
2023-08-14T19:15:45.324Z,3.70
2023-08-14T19:18:19.698Z,3.60
2023-08-14T19:20:52.406Z,4.20
2023-08-14T19:23:24.014Z,3.40
2023-08-14T19:26:00.206Z,3.50
2023-08-14T19:28:45.437Z,4.60
2023-08-14T19:31:18.601Z,3.20
2023-08-14T19:33:50.631Z,3.80
2023-08-14T19:36:22.237Z,2.80
2023-08-14T19:38:53.928Z,3.90
2023-08-14T19:41:25.449Z,3.60
2023-08-14T19:43:58.124Z,3.60
2023-08-14T19:46:30.303Z,4.30
2023-08-14T19:49:02.416Z,3.80
2023-08-14T19:51:33.905Z,3.80
2023-08-14T19:54:06.134Z,4.10
2023-08-14T19:56:37.670Z,4.10
2023-08-14T19:59:09.754Z,4.80
2023-08-14T20:01:41.355Z,3.60
2023-08-14T20:04:12.987Z,3.60
2023-08-14T20:06:45.086Z,3.50
2023-08-14T20:09:17.718Z,3.80
2023-08-14T20:12:03.800Z,3.50
2023-08-14T20:14:42.002Z,3.30
2023-08-14T20:17:28.518Z,3.20
2023-08-14T20:20:02.916Z,3.40
2023-08-14T20:22:34.519Z,3.90
2023-08-14T20:25:06.994Z,4.00
2023-08-14T20:27:38.636Z,4.40
2023-08-14T20:30:12.187Z,4.20
2023-08-14T20:32:43.935Z,3.80
2023-08-14T20:35:16.091Z,4.30
2023-08-14T20:37:47.748Z,4.00
2023-08-14T20:40:19.676Z,4.20
2023-08-14T20:42:51.142Z,4.20
2023-08-14T20:45:23.714Z,3.80
2023-08-14T20:47:55.573Z,4.10
2023-08-14T20:50:33.829Z,3.90
2023-08-14T20:53:06.006Z,3.90
2023-08-14T20:55:37.774Z,3.60
2023-08-14T20:58:09.834Z,3.90
2023-08-14T21:00:44.708Z,3.80
2023-08-14T21:03:17.364Z,4.00
2023-08-14T21:05:50.285Z,3.90
2023-08-14T21:08:22.529Z,3.90
2023-08-14T21:10:54.562Z,4.30
2023-08-14T21:13:26.885Z,3.70
2023-08-14T21:16:00.676Z,3.50
2023-08-14T21:18:32.222Z,3.70
2023-08-14T21:21:03.760Z,4.30
2023-08-14T21:23:35.226Z,3.70
2023-08-14T21:26:06.668Z,4.40
2023-08-14T21:28:38.151Z,4.00
2023-08-14T21:31:09.806Z,3.90
2023-08-14T21:33:41.369Z,4.80
2023-08-14T21:36:13.010Z,4.00
2023-08-14T21:38:44.754Z,4.10
2023-08-14T21:41:16.393Z,3.80
2023-08-14T21:43:47.913Z,3.80
2023-08-14T21:46:19.538Z,4.10
2023-08-14T21:48:51.301Z,4.10
2023-08-14T21:51:23.753Z,3.90
2023-08-14T21:53:55.613Z,4.50
2023-08-14T21:56:27.103Z,3.60
2023-08-14T21:58:58.624Z,3.20
2023-08-14T22:01:30.314Z,3.70
2023-08-14T22:04:01.832Z,4.60
2023-08-14T22:06:33.440Z,4.30
2023-08-14T22:09:06.440Z,4.00
2023-08-14T22:11:38.224Z,3.70
2023-08-14T22:14:09.773Z,4.20
2023-08-14T22:16:41.392Z,4.10
2023-08-14T22:19:13.322Z,4.20
2023-08-14T22:21:44.876Z,3.90
2023-08-14T22:24:28.547Z,4.10
2023-08-14T22:27:08.546Z,3.70
2023-08-14T22:29:40.074Z,4.30
2023-08-14T22:32:11.682Z,4.10
2023-08-14T22:34:43.153Z,4.60
2023-08-14T22:37:14.661Z,4.50
2023-08-14T22:39:46.281Z,4.20
2023-08-14T22:42:17.967Z,4.20
2023-08-14T22:44:50.407Z,4.30
2023-08-14T22:47:22.280Z,4.40
2023-08-14T22:49:54.205Z,4.40
2023-08-14T22:52:25.863Z,4.50
2023-08-14T22:54:57.295Z,4.30
2023-08-14T22:57:28.772Z,3.90
2023-08-14T23:00:00.267Z,3.70
2023-08-14T23:02:32.094Z,3.90
2023-08-14T23:05:03.826Z,4.30
2023-08-14T23:07:35.501Z,4.50
2023-08-14T23:10:08.731Z,4.00
2023-08-14T23:12:40.375Z,3.80
2023-08-14T23:15:13.724Z,4.20
2023-08-14T23:17:45.275Z,4.30
2023-08-14T23:20:16.844Z,3.70
2023-08-14T23:22:48.486Z,4.80
2023-08-14T23:25:20.158Z,4.10
2023-08-14T23:27:51.716Z,4.50
2023-08-14T23:30:23.241Z,4.60
2023-08-14T23:32:55.023Z,3.90
2023-08-14T23:35:26.713Z,3.40
2023-08-14T23:37:58.388Z,3.90
2023-08-14T23:40:30.059Z,4.50
2023-08-14T23:43:01.832Z,4.40
2023-08-14T23:45:33.279Z,4.40
2023-08-14T23:48:05.476Z,4.40
2023-08-14T23:50:37.335Z,4.10
2023-08-14T23:53:08.907Z,3.70
2023-08-14T23:55:45.121Z,4.30
2023-08-14T23:58:16.791Z,3.80
